createdAt,value
2018-05-14T00:00:11.804Z,72.90
2018-05-14T00:01:12.635Z,70.20
2018-05-14T00:02:11.878Z,72.80
2018-05-14T00:03:11.799Z,73.90
2018-05-14T00:04:11.763Z,77.70
2018-05-14T00:05:12.541Z,77.00
2018-05-14T00:06:11.802Z,71.00
2018-05-14T00:07:12.175Z,74.00
2018-05-14T00:08:11.817Z,70.60
2018-05-14T00:09:11.778Z,74.60
2018-05-14T00:10:11.868Z,68.10
2018-05-14T00:11:11.799Z,70.00
2018-05-14T00:12:12.475Z,68.40
2018-05-14T00:13:11.813Z,70.30
2018-05-14T00:14:12.491Z,67.50
2018-05-14T00:15:12.515Z,70.00
2018-05-14T00:16:11.800Z,72.00
2018-05-14T00:17:11.840Z,66.80
2018-05-14T00:18:13.594Z,65.40
2018-05-14T00:19:11.941Z,65.60
2018-05-14T00:20:11.803Z,63.80
2018-05-14T00:21:11.934Z,65.90
2018-05-14T00:22:11.900Z,68.30
2018-05-14T00:23:12.549Z,73.00
2018-05-14T00:24:11.944Z,71.20
2018-05-14T00:25:12.519Z,69.10
2018-05-14T00:26:11.874Z,68.60
2018-05-14T00:27:11.966Z,67.80
2018-05-14T00:28:11.962Z,66.80
2018-05-14T00:29:11.791Z,66.40
2018-05-14T00:30:11.875Z,67.50
2018-05-14T00:31:11.821Z,68.40
2018-05-14T00:32:11.854Z,70.80
2018-05-14T00:33:11.885Z,68.00
2018-05-14T00:34:12.768Z,68.70
2018-05-14T00:35:11.813Z,67.70
2018-05-14T00:40:58.276Z,65.50
2018-05-14T00:41:55.993Z,63.60
2018-05-14T00:43:49.282Z,68.40
2018-05-14T00:44:49.787Z,65.90
2018-05-14T00:46:43.318Z,68.20
2018-05-14T00:47:44.430Z,68.50
2018-05-14T00:49:38.407Z,65.50
2018-05-14T00:50:38.536Z,70.20
2018-05-14T00:52:31.689Z,66.10
2018-05-14T00:53:32.424Z,68.10
2018-05-14T00:55:27.777Z,66.10
2018-05-14T00:56:27.443Z,68.90
2018-05-14T00:58:21.572Z,65.00
2018-05-14T00:59:21.228Z,64.90
2018-05-14T01:01:15.421Z,61.10
2018-05-14T01:02:15.401Z,58.00
2018-05-14T01:04:10.146Z,56.00
2018-05-14T01:05:08.897Z,57.40
2018-05-14T01:07:03.751Z,66.50
2018-05-14T01:08:03.153Z,63.50
2018-05-14T01:09:58.285Z,61.90
2018-05-14T01:10:57.340Z,63.30
2018-05-14T01:12:51.438Z,66.70
2018-05-14T01:13:52.540Z,64.10
2018-05-14T01:15:47.121Z,63.40
2018-05-14T01:16:46.377Z,67.90
2018-05-14T01:18:41.195Z,69.90
2018-05-14T01:19:41.918Z,67.30
2018-05-14T01:21:34.443Z,70.10
2018-05-14T01:22:35.126Z,68.40
2018-05-14T01:24:31.675Z,71.40
2018-05-14T01:25:28.614Z,69.00
2018-05-14T01:27:24.165Z,68.90
2018-05-14T01:28:23.468Z,64.20
2018-05-14T01:30:18.033Z,69.20
2018-05-14T01:31:16.957Z,66.80
2018-05-14T01:33:11.598Z,61.90
2018-05-14T01:34:11.952Z,67.20
2018-05-14T01:36:06.043Z,66.00
2018-05-14T01:37:08.684Z,69.90
2018-05-14T01:39:02.486Z,60.90
2018-05-14T01:40:00.036Z,62.30
2018-05-14T01:41:54.736Z,62.80
2018-05-14T01:43:04.532Z,57.40
2018-05-14T01:44:50.648Z,61.60
2018-05-14T01:45:49.351Z,59.50
2018-05-14T01:47:45.504Z,61.70
2018-05-14T01:48:45.514Z,58.40
2018-05-14T01:50:39.533Z,61.80
2018-05-14T01:51:39.273Z,62.30
2018-05-14T01:53:33.479Z,61.50
2018-05-14T01:54:33.442Z,65.50
2018-05-14T01:56:27.279Z,64.40
2018-05-14T01:57:27.299Z,59.70
2018-05-14T01:59:21.833Z,60.10
2018-05-14T02:00:21.873Z,58.80
2018-05-14T02:02:16.026Z,59.80
2018-05-14T02:03:16.453Z,61.80
2018-05-14T02:05:10.586Z,59.20
2018-05-14T02:06:11.060Z,61.20
2018-05-14T02:08:04.577Z,57.70
2018-05-14T02:09:04.874Z,56.80
2018-05-14T02:10:58.909Z,57.50
2018-05-14T02:11:58.994Z,61.00
2018-05-14T02:13:53.913Z,57.50
2018-05-14T02:14:54.153Z,55.10
2018-05-14T02:16:48.408Z,59.00
2018-05-14T02:17:48.789Z,53.70
2018-05-14T02:19:42.815Z,56.90
2018-05-14T02:20:42.951Z,58.20
2018-05-14T02:22:38.609Z,51.20
2018-05-14T02:23:38.960Z,52.70
2018-05-14T02:25:31.636Z,53.00
2018-05-14T02:26:31.776Z,52.90
2018-05-14T02:28:27.615Z,57.00
2018-05-14T02:29:26.069Z,55.40
2018-05-14T02:31:20.266Z,53.50
2018-05-14T02:32:20.662Z,56.50
2018-05-14T02:33:20.665Z,53.10
2018-05-14T02:34:20.682Z,58.30
2018-05-14T02:35:20.644Z,55.10
2018-05-14T02:36:20.760Z,56.70
2018-05-14T02:37:20.630Z,55.40
2018-05-14T02:38:20.647Z,54.00
2018-05-14T02:39:20.662Z,53.30
2018-05-14T02:40:20.639Z,51.50
2018-05-14T02:41:20.661Z,52.90
2018-05-14T02:42:20.618Z,52.30
2018-05-14T02:43:20.645Z,50.90
2018-05-14T02:44:20.623Z,51.30
2018-05-14T02:45:20.676Z,50.20
2018-05-14T02:46:20.713Z,50.50
2018-05-14T02:47:20.734Z,48.60
2018-05-14T02:48:20.709Z,49.20
2018-05-14T02:49:20.722Z,47.80
2018-05-14T02:50:20.676Z,50.90
2018-05-14T02:51:20.646Z,51.60
2018-05-14T02:52:20.763Z,50.90
2018-05-14T02:53:20.679Z,48.80
2018-05-14T02:54:22.845Z,48.10
2018-05-14T02:55:20.850Z,51.60
2018-05-14T02:56:20.726Z,50.90
2018-05-14T02:57:20.720Z,49.90
2018-05-14T02:58:20.249Z,49.30
2018-05-14T02:59:20.715Z,50.30
2018-05-14T03:00:20.666Z,52.00
2018-05-14T03:01:20.710Z,50.70
2018-05-14T03:02:20.681Z,51.20
2018-05-14T03:03:20.708Z,50.50
2018-05-14T03:04:20.646Z,50.60
2018-05-14T03:05:20.691Z,49.20
2018-05-14T03:06:20.713Z,49.50
2018-05-14T03:07:20.659Z,47.70
2018-05-14T03:08:20.696Z,47.70
2018-05-14T03:09:20.677Z,49.60
2018-05-14T03:10:20.725Z,46.90
2018-05-14T03:11:20.718Z,47.40
2018-05-14T03:12:20.740Z,47.50
2018-05-14T03:13:20.717Z,46.40
2018-05-14T03:14:20.734Z,49.00
2018-05-14T03:15:20.752Z,49.40
2018-05-14T03:16:20.659Z,49.10
2018-05-14T03:17:20.669Z,47.50
2018-05-14T03:18:20.719Z,49.80
2018-05-14T03:19:20.716Z,47.80
2018-05-14T03:20:20.740Z,48.60
2018-05-14T03:21:20.717Z,48.30
2018-05-14T03:22:20.691Z,48.40
2018-05-14T03:23:20.710Z,48.80
2018-05-14T03:24:20.667Z,49.70
2018-05-14T03:25:20.728Z,51.40
2018-05-14T03:26:20.680Z,48.90
2018-05-14T03:27:20.844Z,47.50
2018-05-14T03:28:20.676Z,46.40
2018-05-14T03:29:20.663Z,48.00
2018-05-14T03:30:20.665Z,46.90
2018-05-14T03:31:20.680Z,49.00
2018-05-14T03:32:20.657Z,49.60
2018-05-14T03:33:20.723Z,47.80
2018-05-14T03:34:21.186Z,48.50
2018-05-14T03:35:20.209Z,49.20
2018-05-14T03:36:20.666Z,47.30
2018-05-14T03:37:20.719Z,48.50
2018-05-14T03:38:20.231Z,47.50
2018-05-14T03:39:20.629Z,51.00
2018-05-14T03:40:20.686Z,47.90
2018-05-14T03:41:20.637Z,50.60
2018-05-14T03:42:20.677Z,51.80
2018-05-14T03:43:20.854Z,49.60
2018-05-14T03:44:20.678Z,48.90
2018-05-14T03:45:20.635Z,49.80
2018-05-14T03:46:20.911Z,46.90
2018-05-14T03:47:20.682Z,45.10
2018-05-14T03:48:20.605Z,48.90
2018-05-14T03:49:21.499Z,48.80
2018-05-14T03:50:21.206Z,49.00
2018-05-14T03:51:20.849Z,47.90
2018-05-14T03:52:20.563Z,48.70
2018-05-14T03:53:20.601Z,47.60
2018-05-14T03:54:20.859Z,45.80
2018-05-14T03:55:20.620Z,47.90
2018-05-14T03:56:20.611Z,49.20
2018-05-14T03:57:20.628Z,49.60
2018-05-14T03:58:20.730Z,49.50
2018-05-14T03:59:20.730Z,49.20
2018-05-14T04:00:20.623Z,44.40
2018-05-14T04:01:20.237Z,46.30
2018-05-14T04:02:20.763Z,48.40
2018-05-14T04:03:20.610Z,49.30
2018-05-14T04:04:20.651Z,51.00
2018-05-14T04:05:20.718Z,48.00
2018-05-14T04:06:19.923Z,47.50
2018-05-14T04:07:20.863Z,48.80
2018-05-14T04:08:20.633Z,47.70
2018-05-14T04:09:20.744Z,49.90
2018-05-14T04:10:20.277Z,47.90
2018-05-14T04:11:20.664Z,47.90
2018-05-14T04:12:20.732Z,50.60
2018-05-14T04:13:20.872Z,49.20
2018-05-14T04:14:20.745Z,48.80
2018-05-14T04:15:20.241Z,49.50
2018-05-14T04:16:20.243Z,48.20
2018-05-14T04:17:20.624Z,48.30
2018-05-14T04:18:20.599Z,50.20
2018-05-14T04:19:20.623Z,50.10
2018-05-14T04:20:20.600Z,48.10
2018-05-14T04:21:20.642Z,51.10
2018-05-14T04:22:20.595Z,49.20
2018-05-14T04:23:20.632Z,48.50
2018-05-14T04:24:20.683Z,48.40
2018-05-14T04:25:20.643Z,48.40
2018-05-14T04:26:20.662Z,48.30
2018-05-14T04:27:20.694Z,49.10
2018-05-14T04:28:20.631Z,49.90
2018-05-14T04:29:20.630Z,48.40
2018-05-14T04:30:20.747Z,48.90
2018-05-14T04:31:20.676Z,47.10
2018-05-14T04:32:20.714Z,50.30
2018-05-14T04:33:20.718Z,49.80
2018-05-14T04:34:20.742Z,48.90
2018-05-14T04:35:20.673Z,48.50
2018-05-14T04:36:20.723Z,48.90
2018-05-14T04:37:21.341Z,49.40
2018-05-14T04:38:20.670Z,46.20
2018-05-14T04:39:20.667Z,49.10
2018-05-14T04:40:20.685Z,48.20
2018-05-14T04:41:20.667Z,47.10
2018-05-14T04:42:20.921Z,47.40
2018-05-14T04:43:20.898Z,45.60
2018-05-14T04:44:20.318Z,45.20
2018-05-14T04:45:20.618Z,47.10
2018-05-14T04:46:20.584Z,46.40
2018-05-14T04:47:20.626Z,44.30
2018-05-14T04:48:20.596Z,45.60
2018-05-14T04:49:20.654Z,47.50
2018-05-14T04:50:20.571Z,49.90
2018-05-14T04:51:20.571Z,48.80
2018-05-14T04:52:20.651Z,47.80
2018-05-14T04:53:20.600Z,46.90
2018-05-14T04:54:20.590Z,46.50
2018-05-14T04:55:20.665Z,48.10
2018-05-14T04:56:20.607Z,48.30
2018-05-14T04:57:20.660Z,48.70
2018-05-14T04:58:20.659Z,48.30
2018-05-14T04:59:20.670Z,47.60
2018-05-14T05:00:20.680Z,47.00
2018-05-14T05:01:20.672Z,46.20
2018-05-14T05:02:20.665Z,49.50
2018-05-14T05:03:20.657Z,47.80
2018-05-14T05:04:20.678Z,47.90
2018-05-14T05:05:20.663Z,46.90
2018-05-14T05:06:20.935Z,48.00
2018-05-14T05:07:20.758Z,47.00
2018-05-14T05:08:20.814Z,46.80
2018-05-14T05:09:20.744Z,46.00
2018-05-14T05:10:20.821Z,48.50
2018-05-14T05:11:20.733Z,48.60
2018-05-14T05:12:20.715Z,47.80
2018-05-14T05:13:22.558Z,48.10
2018-05-14T05:14:20.980Z,48.50
2018-05-14T05:15:20.310Z,46.90
2018-05-14T05:16:20.732Z,46.70
2018-05-14T05:17:20.704Z,46.80
2018-05-14T05:18:20.688Z,46.80
2018-05-14T05:19:20.708Z,46.90
2018-05-14T05:20:20.714Z,45.10
2018-05-14T05:21:20.698Z,47.60
2018-05-14T05:22:20.724Z,46.30
2018-05-14T05:23:20.722Z,47.60
2018-05-14T05:24:20.756Z,47.40
2018-05-14T05:25:20.978Z,48.70
2018-05-14T05:26:20.725Z,43.90
2018-05-14T05:27:20.713Z,47.70
2018-05-14T05:28:20.802Z,46.20
2018-05-14T05:29:20.713Z,45.50
2018-05-14T05:30:20.938Z,42.90
2018-05-14T05:31:20.757Z,45.10
2018-05-14T05:32:20.884Z,45.40
2018-05-14T05:33:21.249Z,45.30
2018-05-14T05:34:22.483Z,45.70
2018-05-14T05:35:20.701Z,44.70
2018-05-14T05:36:20.808Z,46.40
2018-05-14T05:37:21.248Z,46.00
2018-05-14T05:38:20.920Z,46.90
2018-05-14T05:39:20.689Z,46.70
2018-05-14T05:40:20.738Z,47.10
2018-05-14T05:41:20.946Z,44.30
2018-05-14T05:42:20.259Z,46.70
2018-05-14T05:43:20.723Z,44.80
2018-05-14T05:44:20.719Z,43.60
2018-05-14T05:45:20.765Z,42.10
2018-05-14T05:46:20.734Z,44.70
2018-05-14T05:47:20.952Z,44.10
2018-05-14T05:48:20.950Z,44.00
2018-05-14T05:49:20.954Z,43.70
2018-05-14T05:50:20.665Z,44.60
2018-05-14T05:51:20.949Z,43.40
2018-05-14T05:52:20.678Z,43.40
2018-05-14T05:53:20.942Z,45.20
2018-05-14T05:54:22.950Z,44.50
2018-05-14T05:55:20.685Z,44.90
2018-05-14T05:56:20.750Z,44.50
2018-05-14T05:57:21.239Z,43.90
2018-05-14T05:58:21.404Z,46.80
2018-05-14T05:59:20.949Z,44.50
2018-05-14T06:00:21.008Z,44.50
2018-05-14T06:01:21.048Z,46.00
2018-05-14T06:02:20.684Z,44.00
2018-05-14T06:03:20.639Z,42.50
2018-05-14T06:04:20.950Z,43.90
2018-05-14T06:05:20.950Z,43.70
2018-05-14T06:06:20.766Z,45.00
2018-05-14T06:07:21.402Z,44.10
2018-05-14T06:08:22.669Z,41.10
2018-05-14T06:09:20.672Z,44.70
2018-05-14T06:10:20.955Z,44.20
2018-05-14T06:11:20.694Z,44.50
2018-05-14T06:12:20.955Z,45.00
2018-05-14T06:13:20.656Z,43.70
2018-05-14T06:14:20.705Z,44.50
2018-05-14T06:15:20.659Z,45.20
2018-05-14T06:16:20.991Z,42.10
2018-05-14T06:17:20.663Z,45.80
2018-05-14T06:18:20.662Z,43.60
2018-05-14T06:19:21.253Z,45.40
2018-05-14T06:20:20.953Z,44.80
2018-05-14T06:21:21.007Z,45.30
2018-05-14T06:22:20.741Z,43.10
2018-05-14T06:23:20.343Z,44.30
2018-05-14T06:24:20.603Z,44.60
2018-05-14T06:25:20.969Z,47.20
2018-05-14T06:26:20.916Z,42.70
2018-05-14T06:27:20.680Z,45.60
2018-05-14T06:28:20.970Z,44.00
2018-05-14T06:29:20.956Z,45.00
2018-05-14T06:30:21.264Z,45.10
2018-05-14T06:31:20.797Z,44.30
2018-05-14T06:32:21.264Z,43.40
2018-05-14T06:33:20.954Z,42.20
2018-05-14T06:34:20.971Z,43.60
2018-05-14T06:35:20.683Z,43.30
2018-05-14T06:36:20.922Z,43.20
2018-05-14T06:37:20.423Z,44.20
2018-05-14T06:38:20.973Z,42.60
2018-05-14T06:39:20.808Z,42.20
2018-05-14T06:40:21.269Z,42.00
2018-05-14T06:41:20.969Z,41.40
2018-05-14T06:42:20.753Z,42.60
2018-05-14T06:43:20.975Z,41.70
2018-05-14T06:44:21.037Z,42.90
2018-05-14T06:45:21.347Z,41.60
2018-05-14T06:46:20.972Z,41.80
2018-05-14T06:47:20.623Z,39.80
2018-05-14T06:48:20.963Z,42.50
2018-05-14T06:49:20.972Z,42.10
2018-05-14T06:50:20.967Z,42.10
2018-05-14T06:51:20.648Z,41.40
2018-05-14T06:52:22.489Z,42.80
2018-05-14T06:53:20.638Z,44.80
2018-05-14T06:54:20.970Z,42.00
2018-05-14T06:55:20.923Z,42.10
2018-05-14T06:56:20.964Z,43.40
2018-05-14T06:57:21.268Z,40.00
2018-05-14T06:58:20.958Z,41.50
2018-05-14T06:59:21.232Z,41.90
2018-05-14T07:00:20.971Z,42.50
2018-05-14T07:01:20.976Z,39.70
2018-05-14T07:02:20.974Z,40.80
2018-05-14T07:03:20.767Z,39.80
2018-05-14T07:04:21.019Z,41.90
2018-05-14T07:05:20.961Z,41.90
2018-05-14T07:07:20.752Z,41.10
2018-05-14T07:08:20.979Z,41.20
2018-05-14T07:09:20.982Z,39.70
2018-05-14T07:10:20.773Z,40.30
2018-05-14T07:11:21.279Z,40.00
2018-05-14T07:12:20.930Z,39.50
2018-05-14T07:13:20.681Z,40.30
2018-05-14T07:14:20.933Z,42.50
2018-05-14T07:15:21.290Z,40.10
2018-05-14T07:16:20.980Z,40.60
2018-05-14T07:17:20.721Z,39.40
2018-05-14T07:18:21.556Z,38.90
2018-05-14T07:19:21.018Z,38.00
2018-05-14T07:20:20.870Z,36.40
2018-05-14T07:21:20.935Z,37.40
2018-05-14T07:22:20.988Z,37.80
2018-05-14T07:23:20.691Z,37.90
2018-05-14T07:24:20.970Z,37.30
2018-05-14T07:25:20.937Z,35.30
2018-05-14T07:26:20.459Z,38.90
2018-05-14T07:27:21.115Z,37.40
2018-05-14T07:28:21.324Z,38.80
2018-05-14T07:29:20.828Z,37.60
2018-05-14T07:30:20.736Z,38.30
2018-05-14T07:31:20.466Z,37.90
2018-05-14T07:32:20.974Z,36.90
2018-05-14T07:33:20.963Z,37.10
2018-05-14T07:34:20.956Z,35.20
2018-05-14T07:35:20.995Z,35.30
2018-05-14T07:36:21.081Z,35.10
2018-05-14T07:37:20.950Z,34.50
2018-05-14T07:38:21.032Z,34.90
2018-05-14T07:39:20.838Z,34.00
2018-05-14T07:40:20.872Z,33.70
2018-05-14T07:41:21.413Z,33.50
2018-05-14T07:42:20.988Z,33.30
2018-05-14T07:43:20.991Z,32.40
2018-05-14T07:44:20.993Z,34.70
2018-05-14T07:45:21.214Z,32.70
2018-05-14T07:46:21.402Z,35.00
2018-05-14T07:47:20.734Z,35.60
2018-05-14T07:48:20.952Z,33.60
2018-05-14T07:49:21.033Z,34.70
2018-05-14T07:50:22.996Z,35.80
2018-05-14T07:51:21.464Z,36.20
2018-05-14T07:52:20.996Z,36.80
2018-05-14T07:53:20.992Z,36.00
2018-05-14T07:54:20.520Z,32.50
2018-05-14T07:55:21.360Z,32.00
2018-05-14T07:56:20.555Z,32.70
2018-05-14T07:57:23.005Z,31.40
2018-05-14T07:58:20.696Z,30.40
2018-05-14T07:59:20.738Z,30.60
2018-05-14T08:00:20.800Z,30.40
2018-05-14T08:01:20.448Z,30.90
2018-05-14T08:02:20.727Z,31.80
2018-05-14T08:03:20.713Z,30.20
2018-05-14T08:04:20.770Z,30.70
2018-05-14T08:05:21.294Z,31.50
2018-05-14T08:06:21.046Z,30.60
2018-05-14T08:07:20.976Z,31.50
2018-05-14T08:08:21.563Z,29.70
2018-05-14T08:09:20.720Z,29.80
2018-05-14T08:10:21.014Z,28.90
2018-05-14T08:11:20.959Z,29.80
2018-05-14T08:12:20.959Z,29.40
2018-05-14T08:13:20.899Z,29.30
2018-05-14T08:14:21.307Z,30.10
2018-05-14T08:15:21.203Z,29.70
2018-05-14T08:16:21.303Z,30.70
2018-05-14T08:17:20.795Z,30.30
2018-05-14T08:18:22.956Z,30.40
2018-05-14T08:19:20.692Z,28.70
2018-05-14T08:20:19.461Z,28.00
2018-05-14T08:21:20.981Z,29.60
2018-05-14T08:22:20.996Z,28.80
2018-05-14T08:23:20.756Z,30.00
2018-05-14T08:24:21.355Z,30.70
2018-05-14T08:25:21.152Z,29.50
2018-05-14T08:26:20.767Z,28.30
2018-05-14T08:27:21.011Z,27.60
2018-05-14T08:28:20.808Z,26.20
2018-05-14T08:29:20.961Z,26.10
2018-05-14T08:30:21.053Z,27.50
2018-05-14T08:31:20.824Z,27.60
2018-05-14T08:32:21.006Z,27.20
2018-05-14T08:33:22.377Z,27.50
2018-05-14T08:34:20.833Z,28.30
2018-05-14T08:35:21.467Z,28.60
2018-05-14T08:36:20.896Z,29.30
2018-05-14T08:37:21.461Z,27.80
2018-05-14T08:38:21.425Z,26.50
2018-05-14T08:39:21.491Z,26.50
2018-05-14T08:40:20.967Z,25.80
2018-05-14T08:41:20.971Z,25.60
2018-05-14T08:42:20.832Z,26.90
2018-05-14T08:43:20.980Z,26.60
2018-05-14T08:44:21.466Z,28.00
2018-05-14T08:45:21.321Z,26.50
2018-05-14T08:46:21.197Z,27.70
2018-05-14T08:47:20.973Z,25.50
2018-05-14T08:48:20.975Z,27.30
2018-05-14T08:49:20.830Z,26.60
2018-05-14T08:50:20.918Z,27.60
2018-05-14T08:51:21.317Z,28.40
2018-05-14T08:52:21.310Z,28.40
2018-05-14T08:53:20.991Z,27.90
2018-05-14T08:54:21.141Z,28.30
2018-05-14T08:55:21.032Z,26.60
2018-05-14T08:56:22.976Z,27.50
2018-05-14T08:57:20.970Z,27.30
2018-05-14T08:58:21.019Z,26.70
2018-05-14T08:59:21.203Z,27.70
2018-05-14T09:00:21.237Z,27.00
2018-05-14T09:01:20.979Z,28.80
2018-05-14T09:02:21.319Z,26.60
2018-05-14T09:03:21.223Z,27.00
2018-05-14T09:04:23.025Z,27.40
2018-05-14T09:05:21.814Z,25.90
2018-05-14T09:06:21.239Z,25.80
2018-05-14T09:07:21.524Z,24.70
2018-05-14T09:08:21.813Z,24.30
2018-05-14T09:09:21.519Z,24.50
2018-05-14T09:10:21.023Z,24.20
2018-05-14T09:11:21.487Z,23.40
2018-05-14T09:12:21.479Z,23.00
2018-05-14T09:14:21.485Z,23.20
2018-05-14T09:15:20.598Z,24.60
2018-05-14T09:16:21.283Z,24.20
2018-05-14T09:17:21.528Z,24.10
2018-05-14T09:18:21.492Z,24.20
2018-05-14T09:19:21.611Z,24.30
2018-05-14T09:20:21.525Z,23.40
2018-05-14T09:21:21.571Z,23.30
2018-05-14T09:22:21.528Z,21.60
2018-05-14T09:23:21.531Z,21.30
2018-05-14T09:24:21.271Z,21.20
2018-05-14T09:25:21.716Z,21.50
2018-05-14T09:26:21.835Z,21.50
2018-05-14T09:27:21.530Z,22.80
2018-05-14T09:28:21.531Z,23.40
2018-05-14T09:29:21.548Z,23.20
2018-05-14T09:30:21.250Z,24.30
2018-05-14T09:31:21.908Z,23.60
2018-05-14T09:32:21.362Z,22.50
2018-05-14T09:33:21.307Z,20.50
2018-05-14T09:34:21.485Z,20.30
2018-05-14T09:35:21.536Z,18.50
2018-05-14T09:36:21.317Z,18.60
2018-05-14T09:37:21.316Z,20.30
2018-05-14T09:38:21.593Z,19.80
2018-05-14T09:39:21.536Z,19.40
2018-05-14T09:40:23.062Z,19.50
2018-05-14T09:41:21.539Z,18.10
2018-05-14T09:42:21.590Z,18.70
2018-05-14T09:43:21.994Z,17.90
2018-05-14T09:44:21.256Z,17.10
2018-05-14T09:45:21.844Z,16.10
2018-05-14T09:46:21.584Z,16.60
2018-05-14T09:47:22.499Z,16.50
2018-05-14T09:48:21.884Z,15.80
2018-05-14T09:49:21.247Z,15.10
2018-05-14T09:50:21.596Z,15.70
2018-05-14T09:51:21.970Z,15.80
2018-05-14T09:52:21.539Z,15.20
2018-05-14T09:53:23.077Z,15.20
2018-05-14T09:54:21.317Z,15.00
2018-05-14T09:55:21.872Z,14.40
2018-05-14T09:56:21.966Z,14.60
2018-05-14T09:57:21.880Z,14.20
2018-05-14T09:58:21.574Z,14.20
2018-05-14T09:59:20.681Z,14.20
2018-05-14T10:00:21.000Z,13.80
2018-05-14T10:01:21.866Z,14.00
2018-05-14T10:02:21.557Z,14.50
2018-05-14T10:03:22.333Z,13.50
2018-05-14T10:04:23.031Z,13.50
2018-05-14T10:05:21.991Z,14.70
2018-05-14T10:06:21.945Z,13.70
2018-05-14T10:07:21.553Z,14.80
2018-05-14T10:08:21.504Z,14.90
2018-05-14T10:09:20.677Z,14.20
2018-05-14T10:10:21.585Z,12.40
2018-05-14T10:11:21.257Z,13.90
2018-05-14T10:12:21.523Z,12.40
2018-05-14T10:13:21.838Z,13.70
2018-05-14T10:14:21.540Z,13.40
2018-05-14T10:15:21.502Z,13.50
2018-05-14T10:16:21.804Z,12.90
2018-05-14T10:17:21.332Z,13.70
2018-05-14T10:18:21.557Z,14.80
2018-05-14T10:19:21.591Z,14.00
2018-05-14T10:20:21.985Z,13.90
2018-05-14T10:21:21.337Z,12.70
2018-05-14T10:22:22.668Z,13.10
2018-05-14T10:24:21.554Z,14.30
2018-05-14T10:25:21.951Z,13.10
2018-05-14T10:26:23.290Z,13.50
2018-05-14T10:27:21.508Z,13.60
2018-05-14T10:28:21.556Z,13.10
2018-05-14T10:29:21.516Z,12.70
2018-05-14T10:30:21.488Z,13.50
2018-05-14T10:31:21.516Z,13.60
2018-05-14T10:32:21.061Z,15.60
2018-05-14T10:33:21.965Z,15.00
2018-05-14T10:34:21.511Z,14.90
2018-05-14T10:35:21.554Z,13.80
2018-05-14T10:36:21.992Z,14.60
2018-05-14T10:37:21.864Z,12.90
2018-05-14T10:38:21.315Z,11.60
2018-05-14T10:39:21.560Z,13.10
2018-05-14T10:40:21.292Z,12.70
2018-05-14T10:41:21.307Z,13.80
2018-05-14T10:42:21.285Z,11.80
2018-05-14T10:43:21.110Z,11.50
2018-05-14T10:44:21.302Z,11.10
2018-05-14T10:45:21.619Z,11.50
2018-05-14T10:46:22.308Z,10.40
2018-05-14T10:47:21.616Z,11.60
2018-05-14T10:48:21.529Z,11.30
2018-05-14T10:49:21.259Z,11.40
2018-05-14T10:50:21.293Z,11.70
2018-05-14T10:51:21.261Z,11.40
2018-05-14T10:52:21.300Z,11.30
2018-05-14T10:53:21.605Z,11.90
2018-05-14T10:54:21.554Z,11.60
2018-05-14T10:55:21.576Z,12.90
2018-05-14T10:56:21.520Z,12.70
2018-05-14T10:57:21.655Z,12.00
2018-05-14T10:58:21.306Z,11.20
2018-05-14T10:59:21.525Z,10.50
2018-05-14T11:00:21.369Z,9.90
2018-05-14T11:01:21.963Z,10.40
2018-05-14T11:02:21.826Z,9.60
2018-05-14T11:03:21.571Z,10.00
2018-05-14T11:04:21.600Z,9.30
2018-05-14T11:05:20.939Z,10.10
2018-05-14T11:06:21.571Z,10.00
2018-05-14T11:07:21.563Z,9.70
2018-05-14T11:08:21.294Z,10.70
2018-05-14T11:09:21.531Z,9.90
2018-05-14T11:10:21.292Z,9.10
2018-05-14T11:11:21.277Z,9.30
2018-05-14T11:12:21.570Z,9.60
2018-05-14T11:13:21.525Z,11.00
2018-05-14T11:14:21.912Z,9.20
2018-05-14T11:15:21.614Z,9.00
2018-05-14T11:16:21.579Z,8.70
2018-05-14T11:17:21.579Z,8.50
2018-05-14T11:18:21.285Z,9.30
2018-05-14T11:19:21.449Z,9.50
2018-05-14T11:20:21.378Z,10.20
2018-05-14T11:21:21.311Z,9.50
2018-05-14T11:22:23.641Z,9.40
2018-05-14T11:23:21.036Z,9.10
2018-05-14T11:24:21.390Z,8.70
2018-05-14T11:25:21.306Z,8.60
2018-05-14T11:26:21.630Z,8.10
2018-05-14T11:27:22.087Z,9.40
2018-05-14T11:28:21.295Z,8.50
2018-05-14T11:29:22.074Z,8.00
2018-05-14T11:30:21.592Z,9.50
2018-05-14T11:31:21.582Z,8.50
2018-05-14T11:32:22.043Z,8.10
2018-05-14T11:33:21.166Z,7.40
2018-05-14T11:34:21.548Z,7.40
2018-05-14T11:35:21.937Z,7.90
2018-05-14T11:36:21.359Z,9.60
2018-05-14T11:37:21.635Z,7.80
2018-05-14T11:38:21.899Z,9.80
2018-05-14T11:39:21.512Z,7.80
2018-05-14T11:40:21.896Z,6.80
2018-05-14T11:41:21.594Z,9.10
2018-05-14T11:42:21.801Z,8.10
2018-05-14T11:43:21.898Z,7.20
2018-05-14T11:44:43.097Z,7.20
2018-05-14T11:45:21.447Z,7.30
2018-05-14T11:46:21.568Z,8.90
2018-05-14T11:47:21.047Z,6.80
2018-05-14T11:48:25.142Z,6.90
2018-05-14T11:49:21.596Z,6.40
2018-05-14T11:50:21.603Z,6.80
2018-05-14T11:51:22.074Z,6.70
2018-05-14T11:52:21.133Z,6.70
2018-05-14T11:53:21.993Z,7.80
2018-05-14T11:54:21.385Z,6.80
2018-05-14T11:55:22.140Z,6.70
2018-05-14T11:56:22.000Z,7.10
2018-05-14T11:57:22.174Z,6.30
2018-05-14T11:58:21.908Z,6.20
2018-05-14T11:59:21.892Z,5.80
2018-05-14T12:00:22.061Z,9.40
2018-05-14T12:01:22.602Z,6.50
2018-05-14T12:02:22.102Z,6.80
2018-05-14T12:03:22.107Z,6.80
2018-05-14T12:04:22.107Z,6.20
2018-05-14T12:05:22.107Z,6.80
2018-05-14T12:06:22.102Z,8.30
2018-05-14T12:07:21.608Z,5.80
2018-05-14T12:08:22.394Z,5.80
2018-05-14T12:09:22.061Z,5.40
2018-05-14T12:10:22.118Z,6.90
2018-05-14T12:11:21.618Z,5.50
2018-05-14T12:12:22.450Z,5.30
2018-05-14T12:13:22.500Z,5.20
2018-05-14T12:14:22.137Z,5.20
2018-05-14T12:15:22.124Z,5.30
2018-05-14T12:16:21.575Z,5.30
2018-05-14T12:17:21.845Z,5.30
2018-05-14T12:18:22.101Z,6.00
2018-05-14T12:19:24.463Z,6.20
2018-05-14T12:20:21.956Z,5.20
2018-05-14T12:21:21.866Z,5.10
2018-05-14T12:22:22.488Z,5.00
2018-05-14T12:23:21.842Z,4.90
2018-05-14T12:24:22.109Z,7.10
2018-05-14T12:25:22.119Z,5.40
2018-05-14T12:26:22.113Z,5.00
2018-05-14T12:27:22.173Z,4.80
2018-05-14T12:28:22.119Z,5.10
2018-05-14T12:29:21.899Z,4.50
2018-05-14T12:30:23.635Z,5.30
2018-05-14T12:31:22.469Z,4.90
2018-05-14T12:32:21.592Z,4.70
2018-05-14T12:33:22.118Z,5.60
2018-05-14T12:34:21.822Z,4.40
2018-05-14T12:35:22.074Z,5.90
2018-05-14T12:36:22.651Z,6.30
2018-05-14T12:37:22.083Z,5.80
2018-05-14T12:38:22.124Z,4.50
2018-05-14T12:39:21.838Z,5.00
2018-05-14T12:40:22.123Z,7.20
2018-05-14T12:41:21.868Z,5.00
2018-05-14T12:42:22.127Z,7.10
2018-05-14T12:43:22.034Z,7.20
2018-05-14T12:44:21.851Z,4.60
2018-05-14T12:45:22.109Z,4.30
2018-05-14T12:46:22.126Z,4.60
2018-05-14T12:47:22.445Z,5.10
2018-05-14T12:48:21.889Z,4.60
2018-05-14T12:49:21.871Z,4.30
2018-05-14T12:50:22.473Z,4.30
2018-05-14T12:51:22.102Z,4.40
2018-05-14T12:52:21.718Z,5.70
2018-05-14T12:53:22.669Z,4.20
2018-05-14T12:54:22.658Z,4.50
2018-05-14T12:55:22.134Z,4.20
2018-05-14T12:56:22.704Z,4.30
2018-05-14T12:57:22.541Z,4.40
2018-05-14T12:58:22.411Z,4.20
2018-05-14T12:59:22.341Z,5.60
2018-05-14T13:00:22.690Z,5.00
2018-05-14T13:01:22.397Z,5.00
2018-05-14T13:02:22.952Z,4.00
2018-05-14T13:03:22.562Z,4.60
2018-05-14T13:04:22.962Z,4.70
2018-05-14T13:05:22.635Z,4.50
2018-05-14T13:06:22.591Z,4.20
2018-05-14T13:07:22.590Z,4.10
2018-05-14T13:08:22.411Z,4.50
2018-05-14T13:09:22.635Z,4.30
2018-05-14T13:10:22.946Z,4.60
2018-05-14T13:11:22.491Z,5.50
2018-05-14T13:12:22.598Z,6.40
2018-05-14T13:13:22.939Z,4.00
2018-05-14T13:14:22.646Z,4.10
2018-05-14T13:15:22.675Z,4.20
2018-05-14T13:16:22.612Z,4.20
2018-05-14T13:17:23.187Z,4.30
2018-05-14T13:18:23.101Z,4.80
2018-05-14T13:19:24.441Z,4.10
2018-05-14T13:20:23.121Z,4.30
2018-05-14T13:21:22.637Z,4.30
2018-05-14T13:22:22.677Z,3.60
2018-05-14T13:23:22.650Z,4.00
2018-05-14T13:24:22.963Z,4.10
2018-05-14T13:25:23.106Z,6.20
2018-05-14T13:26:25.208Z,4.20
2018-05-14T13:27:22.334Z,4.10
2018-05-14T13:28:22.861Z,4.30
2018-05-14T13:29:22.880Z,4.50
2018-05-14T13:30:22.865Z,6.40
2018-05-14T13:31:23.209Z,4.00
2018-05-14T13:32:23.385Z,3.70
2018-05-14T13:33:23.108Z,4.20
2018-05-14T13:34:23.476Z,4.80
2018-05-14T13:35:23.131Z,3.60
2018-05-14T13:36:22.611Z,4.40
2018-05-14T13:37:23.156Z,5.10
2018-05-14T13:38:23.729Z,4.70
2018-05-14T13:39:23.108Z,3.70